Tropic, Utah
Current Conditions -  °F | °C
As of 5:53 AM on Saturday 20 Dec 2014 (Local Time) from KBCE Reporting Station
Clear Clear  
Wind Chill:   Ceiling: Unl
Heat Index: 13°   Visibility: 10mi
Dew Point: 10°   Wind: 7mph
Humidity: 88%   Direction: 240°WSW
Pressure: 30.15"   Gusts: NA
Location:  37.63°N, 112.08°W
Report Text: KBCE 201253Z AUTO 24006KT 10SM CLR M11/M12 A3015 RMK AO2 SLP231 T11061122
Loading
Personal Weather Stations






























Interactive Weather Map New forecast layout! Learn more

10-Day Weather Forecast

Advertisements
Track Severe Weather on mobile